createdAt,value
2023-05-10T00:02:54.546Z,6.97
2023-05-10T00:07:56.298Z,5.28
2023-05-10T00:12:58.139Z,9.48
2023-05-10T00:18:00.022Z,7.90
2023-05-10T00:23:01.955Z,6.30
2023-05-10T00:28:03.850Z,4.60
2023-05-10T00:33:05.689Z,6.20
2023-05-10T00:38:07.754Z,2.90
2023-05-10T00:43:09.457Z,4.00
2023-05-10T00:48:11.280Z,3.75
2023-05-10T00:53:13.019Z,3.70
2023-05-10T00:58:15.303Z,3.53
2023-05-10T01:03:20.133Z,3.42
2023-05-10T01:08:23.120Z,3.45
2023-05-10T01:13:38.910Z,3.45
2023-05-10T01:18:42.792Z,3.92
2023-05-10T01:24:22.101Z,3.50
2023-05-10T01:29:43.280Z,4.10
2023-05-10T01:35:01.755Z,4.63
2023-05-10T01:40:31.237Z,4.15
2023-05-10T01:45:38.750Z,5.93
2023-05-10T01:50:44.132Z,3.47
2023-05-10T01:55:49.916Z,5.78
2023-05-10T02:00:53.299Z,4.97
2023-05-10T02:05:57.432Z,5.32
2023-05-10T02:11:00.163Z,3.72
2023-05-10T02:16:05.604Z,4.82
2023-05-10T02:21:09.362Z,5.22
2023-05-10T02:26:15.221Z,3.30
2023-05-10T02:31:18.883Z,3.58
2023-05-10T02:36:23.708Z,3.17
2023-05-10T02:41:27.353Z,3.65
2023-05-10T02:46:29.717Z,3.25
2023-05-10T02:51:35.954Z,4.60
2023-05-10T02:56:43.944Z,4.50
2023-05-10T03:01:46.489Z,4.13
2023-05-10T03:06:48.795Z,4.13
2023-05-10T03:12:15.506Z,4.38
2023-05-10T03:17:36.185Z,3.67
2023-05-10T03:22:41.880Z,3.15
2023-05-10T03:27:45.055Z,2.85
2023-05-10T03:32:46.902Z,4.35
2023-05-10T03:37:51.371Z,5.93
2023-05-10T03:42:53.250Z,4.00
2023-05-10T03:47:55.016Z,3.50
2023-05-10T03:52:58.405Z,5.03
2023-05-10T03:58:00.152Z,3.55
2023-05-10T04:03:02.274Z,3.60
2023-05-10T04:08:05.117Z,4.47
2023-05-10T04:13:07.264Z,4.28
2023-05-10T04:18:09.050Z,4.70
2023-05-10T04:23:10.992Z,4.53
2023-05-10T04:28:12.803Z,4.43
2023-05-10T04:33:15.330Z,4.57
2023-05-10T04:38:17.028Z,3.55
2023-05-10T04:43:19.325Z,2.70
2023-05-10T04:48:21.010Z,3.00
2023-05-10T04:53:22.902Z,2.97
2023-05-10T04:58:24.555Z,3.23
2023-05-10T05:03:26.365Z,2.70
2023-05-10T05:08:28.219Z,2.50
2023-05-10T05:13:30.356Z,3.83
2023-05-10T05:18:32.203Z,4.43
2023-05-10T05:23:34.042Z,2.88
2023-05-10T05:28:38.203Z,5.80
2023-05-10T05:33:40.117Z,3.85
2023-05-10T05:38:41.859Z,3.72
2023-05-10T05:43:43.753Z,2.67
2023-05-10T05:48:45.593Z,2.20
2023-05-10T05:53:47.937Z,1.88
2023-05-10T05:58:50.580Z,2.42
2023-05-10T06:03:53.506Z,2.00
2023-05-10T06:08:55.900Z,1.92
2023-05-10T06:13:57.873Z,2.85
2023-05-10T06:19:00.275Z,3.38
2023-05-10T06:24:01.988Z,2.35
2023-05-10T06:29:03.647Z,3.47
2023-05-10T06:39:12.575Z,2.83
2023-05-10T06:44:14.311Z,3.03
2023-05-10T06:49:16.059Z,4.90
2023-05-10T06:54:17.716Z,3.35
2023-05-10T06:59:20.384Z,3.85
2023-05-10T07:09:25.306Z,2.63
2023-05-10T07:14:27.076Z,3.10
2023-05-10T07:19:30.376Z,3.27
2023-05-10T07:24:34.067Z,2.40
2023-05-10T07:29:36.860Z,3.55
2023-05-10T07:34:38.918Z,4.57
2023-05-10T07:39:40.621Z,3.97
2023-05-10T07:44:42.843Z,3.85
2023-05-10T07:49:44.856Z,4.15
2023-05-10T07:54:46.517Z,4.65
2023-05-10T07:59:48.496Z,3.28
2023-05-10T08:04:50.199Z,3.77
2023-05-10T08:09:52.111Z,3.63
2023-05-10T08:14:53.847Z,2.80
2023-05-10T08:19:55.620Z,3.13
2023-05-10T08:24:57.382Z,3.65
2023-05-10T08:29:59.100Z,3.42
2023-05-10T08:35:00.845Z,4.15
2023-05-10T08:40:02.790Z,5.32
2023-05-10T08:45:05.821Z,7.40
2023-05-10T08:50:08.141Z,3.70
2023-05-10T08:55:10.487Z,3.33
2023-05-10T09:00:13.047Z,3.20
2023-05-10T09:05:17.110Z,3.90
2023-05-10T09:10:20.548Z,5.47
2023-05-10T09:15:22.465Z,3.53
2023-05-10T09:20:25.326Z,3.60
2023-05-10T09:30:32.177Z,3.20
2023-05-10T09:35:34.609Z,7.47
2023-05-10T09:40:36.355Z,5.32
2023-05-10T09:45:39.128Z,3.22
2023-05-10T09:50:41.311Z,5.85
2023-05-10T09:55:47.975Z,3.07
2023-05-10T10:00:53.211Z,3.20
2023-05-10T10:05:56.935Z,5.68
2023-05-10T10:10:58.688Z,3.80
2023-05-10T10:16:00.691Z,4.33
2023-05-10T10:21:03.138Z,4.73
2023-05-10T10:26:05.769Z,3.65
2023-05-10T10:31:27.480Z,6.85
2023-05-10T10:36:29.477Z,2.50
2023-05-10T10:41:36.469Z,5.50
2023-05-10T10:47:09.179Z,4.20
2023-05-10T10:52:34.304Z,4.57
2023-05-10T10:57:48.260Z,3.58
2023-05-10T11:02:57.119Z,3.63
2023-05-10T11:08:00.867Z,2.15
2023-05-10T11:13:11.064Z,2.70
2023-05-10T11:18:21.110Z,3.13
2023-05-10T11:23:23.354Z,5.20
2023-05-10T11:28:25.319Z,7.03
2023-05-10T11:33:27.146Z,3.22
2023-05-10T11:38:28.832Z,4.28
2023-05-10T11:43:31.725Z,5.03
2023-05-10T11:48:34.233Z,3.35
2023-05-10T11:53:36.120Z,2.75
2023-05-10T11:58:39.190Z,1.87
2023-05-10T12:03:41.411Z,2.13
2023-05-10T12:08:53.525Z,3.15
2023-05-10T12:13:57.280Z,3.17
2023-05-10T12:19:00.852Z,3.80
2023-05-10T12:24:04.700Z,3.05
2023-05-10T12:29:20.015Z,3.20
2023-05-10T12:34:32.199Z,3.08
2023-05-10T12:39:45.867Z,3.53
2023-05-10T12:44:47.689Z,4.85
2023-05-10T12:49:49.377Z,3.53
2023-05-10T12:54:51.174Z,3.10
2023-05-10T12:59:52.836Z,3.75
2023-05-10T13:04:54.559Z,4.18
2023-05-10T13:09:56.373Z,3.55
2023-05-10T13:14:58.403Z,2.75
2023-05-10T13:20:00.135Z,2.40
2023-05-10T13:25:02.529Z,2.93
2023-05-10T13:30:04.980Z,4.68
2023-05-10T13:35:07.008Z,2.95
2023-05-10T13:40:09.225Z,3.22
2023-05-10T13:45:13.285Z,2.97
2023-05-10T13:50:15.434Z,2.33
2023-05-10T13:55:17.367Z,4.73
2023-05-10T14:00:19.536Z,3.67
2023-05-10T14:05:25.498Z,4.30
2023-05-10T14:10:28.173Z,2.63
2023-05-10T14:15:29.965Z,2.83
2023-05-10T14:20:33.085Z,3.15
2023-05-10T14:25:35.549Z,2.60
2023-05-10T14:30:37.513Z,2.40
2023-05-10T14:35:39.952Z,5.85
2023-05-10T14:45:44.327Z,3.85
2023-05-10T14:50:46.316Z,3.08
2023-05-10T14:55:48.190Z,2.93
2023-05-10T15:00:49.796Z,3.90
2023-05-10T15:05:52.994Z,3.58
2023-05-10T15:10:56.671Z,4.20
2023-05-10T15:15:58.328Z,4.30
2023-05-10T15:21:00.198Z,3.00
2023-05-10T15:26:02.189Z,4.97
2023-05-10T15:31:04.011Z,5.80
2023-05-10T15:36:05.844Z,4.20
2023-05-10T15:41:07.654Z,5.22
2023-05-10T15:46:09.555Z,4.53
2023-05-10T15:51:11.414Z,6.67
2023-05-10T15:56:13.236Z,3.97
2023-05-10T16:01:15.063Z,4.50
2023-05-10T16:06:17.350Z,3.30
2023-05-10T16:11:19.070Z,6.25
2023-05-10T16:16:20.917Z,4.18
2023-05-10T16:21:22.954Z,4.17
2023-05-10T16:26:24.743Z,6.97
2023-05-10T16:31:26.479Z,5.57
2023-05-10T16:36:29.511Z,4.68
2023-05-10T16:41:34.858Z,6.68
2023-05-10T16:46:36.822Z,6.05
2023-05-10T16:51:38.540Z,4.47
2023-05-10T16:56:40.845Z,6.00
2023-05-10T17:01:42.533Z,5.45
2023-05-10T17:06:44.696Z,4.65
2023-05-10T17:11:46.648Z,6.47
2023-05-10T17:16:48.432Z,4.50
2023-05-10T17:21:50.311Z,4.45
2023-05-10T17:26:52.033Z,5.00
2023-05-10T17:31:53.873Z,3.97
2023-05-10T17:36:55.560Z,7.47
2023-05-10T17:41:57.271Z,7.38
2023-05-10T17:46:59.203Z,4.32
2023-05-10T17:52:01.280Z,5.70
2023-05-10T17:57:03.728Z,4.63
2023-05-10T18:07:07.856Z,5.10
2023-05-10T18:12:09.705Z,6.82
2023-05-10T18:17:11.435Z,4.90
2023-05-10T18:22:13.355Z,6.80
2023-05-10T18:27:15.144Z,3.30
2023-05-10T18:32:17.415Z,5.35
2023-05-10T18:37:19.384Z,6.68
2023-05-10T18:42:21.125Z,4.97
2023-05-10T18:47:23.114Z,6.60
2023-05-10T18:52:25.011Z,7.57
2023-05-10T19:02:29.996Z,6.75
2023-05-10T19:07:32.053Z,8.85
2023-05-10T19:12:34.160Z,6.57
2023-05-10T19:17:36.738Z,7.20
2023-05-10T19:22:54.238Z,6.18
2023-05-10T19:28:01.369Z,6.00
2023-05-10T19:33:05.060Z,5.72
2023-05-10T19:38:07.046Z,4.10
2023-05-10T19:43:09.319Z,6.17
2023-05-10T19:48:11.151Z,5.80
2023-05-10T19:53:13.115Z,7.05
2023-05-10T19:58:14.863Z,3.73
2023-05-10T20:03:17.181Z,6.65
2023-05-10T20:08:18.985Z,6.20
2023-05-10T20:13:21.134Z,6.27
2023-05-10T20:18:23.508Z,6.60
2023-05-10T20:23:26.083Z,4.90
2023-05-10T20:28:28.929Z,7.90
2023-05-10T20:38:32.495Z,5.78
2023-05-10T20:43:34.323Z,4.85
2023-05-10T20:48:36.025Z,8.25
2023-05-10T20:53:37.757Z,6.95
2023-05-10T20:58:39.432Z,9.10
2023-05-10T21:03:41.153Z,6.43
2023-05-10T21:08:43.477Z,5.30
2023-05-10T21:13:45.619Z,7.97
2023-05-10T21:18:47.318Z,9.23
2023-05-10T21:23:49.173Z,8.43
2023-05-10T21:28:51.448Z,7.20
2023-05-10T21:33:53.099Z,8.07
2023-05-10T21:38:54.907Z,8.98
2023-05-10T21:43:57.261Z,7.10
2023-05-10T21:49:01.512Z,7.27
2023-05-10T21:54:03.208Z,7.22
2023-05-10T21:59:05.018Z,7.57
2023-05-10T22:04:06.701Z,10.13
2023-05-10T22:09:08.591Z,8.15
2023-05-10T22:14:10.305Z,8.55
2023-05-10T22:19:12.299Z,10.38
2023-05-10T22:24:14.304Z,11.32
2023-05-10T22:29:16.101Z,8.85
2023-05-10T22:34:18.745Z,7.25
2023-05-10T22:39:20.450Z,9.60
2023-05-10T22:44:22.300Z,6.43
2023-05-10T22:49:24.815Z,6.35
2023-05-10T22:54:26.397Z,7.77
2023-05-10T22:59:28.647Z,9.23
2023-05-10T23:04:30.686Z,8.23
2023-05-10T23:09:32.338Z,7.30
2023-05-10T23:14:34.035Z,6.35
2023-05-10T23:19:36.021Z,5.77
2023-05-10T23:24:39.106Z,6.57
2023-05-10T23:29:40.840Z,5.32
2023-05-10T23:34:42.497Z,6.38
2023-05-10T23:39:44.711Z,5.88
2023-05-10T23:44:46.850Z,6.05
2023-05-10T23:49:50.212Z,6.50
2023-05-10T23:54:52.510Z,6.97
2023-05-10T23:59:54.407Z,5.28
